Track Разумов Владимир

Time Latitude Longitude Accuracy (66% radius in meters) Altitude (meters) Speed (km/hour) Bearing (degrees) Battery (%) GPS flag
10:59:57 60.370865 29.556441 16 72 0 36.877727508545 2 1 delete
10:59:53 60.370873 29.556438 12 66 0 36.877727508545 2 1 delete
10:59:45 60.370843 29.556359 12 63 0 279.13507080078 2 1 delete
10:59:32 60.370839 29.556376 12 75 0 249.16035461426 2 1 delete
10:59:19 60.370831 29.556380 8 84 0 211.72021484375 2 1 delete
10:59:07 60.370837 29.556361 8 73 0 211.72021484375 2 1 delete
10:58:56 60.370858 29.556344 8 84 0 211.72021484375 2 1 delete
10:58:54 60.370873 29.556376 8 78 0 203.0164642334 2 1 delete
10:58:41 60.370889 29.556375 8 66 0.051405765116215 351.34024047852 2 1 delete
10:58:29 60.370903 29.556392 8 65 0.17223183810711 220.83627319336 2 1 delete
10:58:27 60.370919 29.556405 8 71 0 309.31289672852 2 1 delete
10:58:14 60.370949 29.556408 12 80 0 4.1140594482422 2 1 delete
10:58:02 60.370917 29.556397 6 80 0 174.05406188965 2 1 delete
10:57:49 60.370962 29.556418 12 78 0.20654210448265 104.67922973633 2 1 delete
10:57:36 60.370962 29.556344 6 78 0 204.10760498047 2 1 delete
10:57:24 60.370975 29.556364 8 84 0 33.085182189941 2 1 delete
10:57:11 60.370961 29.556383 8 84 0.060636550188065 156.42291259766 2 1 delete
10:56:58 60.370937 29.556383 8 84 0 8.4341278076172 2 1 delete
10:56:49 60.370952 29.556404 12 93 0 41.873432159424 2 1 delete
10:56:46 60.370961 29.556379 12 91 0 42.461170196533 2 1 delete
10:56:33 60.370949 29.556312 12 82 0 196.79052734375 2 1 delete
10:56:21 60.370956 29.556309 16 96 0 196.79052734375 2 1 delete
10:56:08 60.370957 29.556312 12 83 0 196.79052734375 2 1 delete
10:56:07 60.370957 29.556312 12 77 0 196.79052734375 2 1 delete
10:55:56 60.370937 29.556328 16 76 0 196.79052734375 2 1 delete
10:55:43 60.370940 29.556315 8 66 0 196.79052734375 5 1 delete
10:55:30 60.370936 29.556330 8 70 0 8.857518196106 5 1 delete
10:55:18 60.370937 29.556354 12 63 0 8.857518196106 5 1 delete
10:55:13 60.370919 29.556363 12 70 0 177.37933349609 5 1 delete
10:55:06 60.370921 29.556435 12 74 0 177.37933349609 5 1 delete
10:54:58 60.370950 29.556446 8 81 0 154.94940185547 5 1 delete
10:54:53 60.370965 29.556533 12 80 0 154.94940185547 5 1 delete
10:54:49 60.370966 29.556535 8 70 0 154.94940185547 5 1 delete
10:54:40 60.370953 29.556581 16 63 0 154.94940185547 5 1 delete
10:54:28 60.370950 29.556593 12 42 0 154.94940185547 5 1 delete
10:54:15 60.370953 29.556603 12 36 0.29539188742638 163.72264099121 5 1 delete
10:54:02 60.370969 29.556632 12 68 0 156.71324157715 5 1 delete
10:53:59 60.370963 29.556627 12 72 0 150.32907104492 5 1 delete
10:53:48 60.370959 29.556608 12 68 0 128.21487426758 5 1 delete
10:53:36 60.370938 29.556552 12 78 0 143.32026672363 5 1 delete
10:53:29 60.370986 29.556539 12 88 0 106.14625549316 5 1 delete
10:53:24 60.371010 29.556513 12 84 0.08043710142374 73.145896911621 5 1 delete
10:53:12 60.371018 29.556502 16 87 0 51.043476104736 5 1 delete
10:53:02 60.371017 29.556466 16 87 0 60.825000762939 5 1 delete
10:53:00 60.371013 29.556431 16 89 0 58.560962677002 5 1 delete
10:52:48 60.370994 29.556386 12 90 0 23.553951263428 5 1 delete
10:52:43 60.370993 29.556379 12 96 0.5851212143898 10.099061012268 5 1 delete
10:52:35 60.370961 29.556357 12 99 0 350.95452880859 5 1 delete
10:52:33 60.370946 29.556358 12 102 0 343.81729125977 5 1 delete
10:52:23 60.370899 29.556383 12 99 0 335.61322021484 5 1 delete